Time;durP1;ratioP1;P1;durP2;ratioP2;P2;SDS_P1;SDS_P2;PMS_P1;PMS_P2;Temp;Humidity;BMP_temperature;BMP_pressure;BME280_temperature;BME280_humidity;BME280_pressure;Samples;Min_cycle;Max_cycle;Signal;HPM_P1;HPM_P2
2023/04/28 00:02:01;;;;;;;12.53;5.23;;;8.40;99.90;;;;;;5081968;28;20457;-59
2023/04/28 00:04:28;;;;;;;10.33;5.37;;;8.20;99.90;;;;;;5082068;28;20501;-59
2023/04/28 00:06:56;;;;;;;7.17;3.57;;;8.20;99.90;;;;;;5083525;28;20466;-59
2023/04/28 00:09:23;;;;;;;8.03;3.47;;;8.10;99.90;;;;;;5085927;28;20476;-59
2023/04/28 00:11:50;;;;;;;4.90;3.30;;;8.10;99.90;;;;;;5086009;28;20498;-62
2023/04/28 00:14:17;;;;;;;9.63;4.27;;;8.10;99.90;;;;;;5086004;28;20484;-59
2023/04/28 00:16:44;;;;;;;13.63;3.50;;;8.10;99.90;;;;;;5085941;28;20529;-59
2023/04/28 00:19:11;;;;;;;4.07;3.03;;;8.20;99.90;;;;;;5085113;28;20466;-59
2023/04/28 00:21:38;;;;;;;5.27;3.37;;;8.20;99.90;;;;;;5085733;28;20476;-60
2023/04/28 00:24:07;;;;;;;3.50;2.50;;;8.20;99.90;;;;;;5086220;28;20443;-59
2023/04/28 00:26:47;;;;;;;4.27;2.87;;;8.20;99.90;;;;;;5085923;28;20446;-58
2023/04/28 00:29:14;;;;;;;5.43;2.80;;;8.20;99.90;;;;;;5086002;28;20490;-59
2023/04/28 00:31:41;;;;;;;3.53;2.73;;;8.20;99.90;;;;;;5085014;28;20776;-59
2023/04/28 00:34:08;;;;;;;4.43;2.80;;;8.20;99.90;;;;;;5085005;28;20766;-59
2023/04/28 00:36:35;;;;;;;3.90;2.40;;;8.20;99.90;;;;;;5084942;28;20825;-60
2023/04/28 00:39:01;;;;;;;7.87;3.53;;;8.20;99.90;;;;;;5085754;28;20442;-58
2023/04/28 00:41:30;;;;;;;6.03;3.60;;;8.20;99.90;;;;;;5085301;28;20474;-58
2023/04/28 00:43:56;;;;;;;3.60;2.60;;;8.20;99.90;;;;;;5086251;28;20474;-59
2023/04/28 00:46:27;;;;;;;5.13;2.93;;;8.20;99.90;;;;;;5085157;28;20536;-57
2023/04/28 00:48:54;;;;;;;3.20;2.43;;;8.20;99.90;;;;;;5085263;28;20422;-60
2023/04/28 00:51:21;;;;;;;6.00;3.87;;;8.30;99.90;;;;;;5085364;28;20466;-59
2023/04/28 00:53:48;;;;;;;8.40;3.23;;;8.30;99.90;;;;;;5085862;28;20450;-61
2023/04/28 00:56:15;;;;;;;6.60;3.10;;;8.20;99.90;;;;;;5085083;28;20542;-61
2023/04/28 00:58:46;;;;;;;5.20;3.97;;;8.20;99.90;;;;;;5088020;28;20561;-55
2023/04/28 01:01:16;;;;;;;8.73;3.33;;;8.20;99.90;;;;;;5092696;28;20438;-59
2023/04/28 01:03:44;;;;;;;5.80;3.63;;;8.20;99.90;;;;;;5085551;28;20446;-59
2023/04/28 01:06:11;;;;;;;5.63;3.40;;;8.20;99.90;;;;;;5084788;28;20484;-60
2023/04/28 01:08:39;;;;;;;4.47;3.03;;;8.20;99.90;;;;;;5085393;28;20952;-57
2023/04/28 01:11:06;;;;;;;9.20;3.03;;;8.20;99.90;;;;;;5086145;28;20498;-59
2023/04/28 01:13:33;;;;;;;5.67;3.40;;;8.10;99.90;;;;;;5086044;28;20924;-58
2023/04/28 01:16:02;;;;;;;6.33;4.17;;;8.10;99.90;;;;;;5085913;28;20485;-54
2023/04/28 01:18:31;;;;;;;3.47;3.00;;;8.10;99.90;;;;;;5084881;28;20518;-60
2023/04/28 01:20:58;;;;;;;5.40;3.73;;;8.00;99.90;;;;;;5085544;28;20442;-58
2023/04/28 01:23:25;;;;;;;10.70;4.20;;;8.00;99.90;;;;;;5085568;28;20470;-60
2023/04/28 01:25:53;;;;;;;10.33;4.20;;;8.00;99.90;;;;;;5085959;28;20462;-60
2023/04/28 01:28:20;;;;;;;9.60;4.17;;;8.00;99.90;;;;;;5085817;28;20442;-56
2023/04/28 01:31:24;;;;;;;7.20;3.57;;;7.90;99.90;;;;;;5085983;28;20481;-57
2023/04/28 01:33:51;;;;;;;5.03;3.60;;;7.90;99.90;;;;;;5078050;28;20446;-58
2023/04/28 01:36:17;;;;;;;9.30;4.07;;;7.30;99.90;;;;;;5086812;28;20489;-60
2023/04/28 01:38:44;;;;;;;5.63;3.13;;;7.80;99.90;;;;;;5085947;28;20572;-59
2023/04/28 01:41:13;;;;;;;7.37;3.73;;;7.70;99.90;;;;;;5085926;28;20521;-58
2023/04/28 01:43:39;;;;;;;8.40;4.07;;;7.70;99.90;;;;;;5085540;28;20454;-58
2023/04/28 01:46:06;;;;;;;4.37;3.67;;;7.70;99.90;;;;;;5085892;28;20446;-58
2023/04/28 01:48:33;;;;;;;7.43;4.07;;;7.70;99.90;;;;;;5086226;28;20471;-59
2023/04/28 01:51:00;;;;;;;3.87;3.10;;;7.60;99.90;;;;;;5085564;28;20447;-57
2023/04/28 01:53:27;;;;;;;6.80;4.00;;;7.60;99.90;;;;;;5085015;28;20576;-58
2023/04/28 01:55:54;;;;;;;7.80;3.93;;;7.50;99.90;;;;;;5086041;28;20450;-60
2023/04/28 01:58:22;;;;;;;10.03;3.80;;;7.50;99.90;;;;;;5085937;28;20486;-55
2023/04/28 02:00:49;;;;;;;8.20;3.80;;;7.40;99.90;;;;;;5085925;28;20550;-61
2023/04/28 02:03:27;;;;;;;4.30;3.20;;;7.40;99.90;;;;;;5085622;28;20454;-58
2023/04/28 02:05:54;;;;;;;5.73;3.30;;;7.40;99.90;;;;;;5084950;28;20470;-57
2023/04/28 02:08:21;;;;;;;6.90;3.63;;;7.30;99.90;;;;;;5086047;28;20450;-59
2023/04/28 02:10:48;;;;;;;5.80;3.33;;;7.30;99.90;;;;;;5085837;28;20474;-58
2023/04/28 02:13:15;;;;;;;4.03;2.87;;;7.30;99.90;;;;;;5086181;28;20462;-57
2023/04/28 02:15:46;;;;;;;5.80;3.57;;;7.30;99.90;;;;;;5085695;28;20450;-56
2023/04/28 02:18:13;;;;;;;9.23;3.67;;;7.30;99.90;;;;;;5086225;28;20577;-59
2023/04/28 02:20:40;;;;;;;11.10;4.40;;;7.30;99.90;;;;;;5086037;28;20931;-59
2023/04/28 02:23:07;;;;;;;6.40;3.60;;;7.30;99.90;;;;;;5085970;28;20461;-60
2023/04/28 02:25:34;;;;;;;7.47;4.03;;;7.30;99.90;;;;;;5085141;28;20560;-58
2023/04/28 02:28:01;;;;;;;5.93;3.30;;;7.30;99.90;;;;;;5086373;28;20430;-59
2023/04/28 02:30:28;;;;;;;6.03;4.13;;;7.30;99.90;;;;;;5086154;28;20966;-58
2023/04/28 02:32:56;;;;;;;8.87;3.87;;;7.20;99.90;;;;;;5085306;28;20466;-58
2023/04/28 02:35:23;;;;;;;6.67;3.27;;;7.20;99.90;;;;;;5086241;28;20772;-60
2023/04/28 02:37:51;;;;;;;7.30;3.70;;;7.20;99.90;;;;;;5085189;28;20482;-59
2023/04/28 02:40:18;;;;;;;7.53;3.80;;;7.20;99.90;;;;;;5085469;28;20464;-60
2023/04/28 02:42:45;;;;;;;5.40;2.70;;;7.10;99.90;;;;;;5085598;28;20508;-59
2023/04/28 02:45:12;;;;;;;6.43;3.57;;;7.00;99.90;;;;;;5085739;28;20438;-59
2023/04/28 02:47:39;;;;;;;10.47;3.27;;;7.00;99.90;;;;;;5085632;28;20566;-59
2023/04/28 02:50:09;;;;;;;6.30;3.33;;;7.00;99.90;;;;;;5085998;28;20467;-60
2023/04/28 02:52:35;;;;;;;9.60;3.73;;;7.00;99.90;;;;;;5086297;28;20450;-57
2023/04/28 02:55:06;;;;;;;7.53;3.90;;;7.00;99.90;;;;;;5085548;28;20497;-57
2023/04/28 02:57:33;;;;;;;6.87;3.93;;;7.00;99.90;;;;;;5085414;28;20508;-57
2023/04/28 03:00:00;;;;;;;4.97;2.90;;;7.00;99.90;;;;;;5085409;28;20478;-60
2023/04/28 03:02:27;;;;;;;6.43;3.60;;;6.90;99.90;;;;;;5086031;28;20469;-54
2023/04/28 03:04:54;;;;;;;6.10;3.73;;;6.80;99.90;;;;;;5086866;28;20442;-59
2023/04/28 03:07:22;;;;;;;5.03;3.30;;;6.80;99.90;;;;;;5087088;28;20471;-60
2023/04/28 03:09:49;;;;;;;6.43;3.63;;;6.80;99.90;;;;;;5086185;28;20439;-58
2023/04/28 03:12:16;;;;;;;5.57;4.10;;;6.80;99.90;;;;;;5086397;28;20442;-60
2023/04/28 03:14:42;;;;;;;10.03;4.00;;;6.80;99.90;;;;;;5086307;28;20462;-59
2023/04/28 03:17:09;;;;;;;6.93;3.93;;;6.80;99.90;;;;;;5087059;28;20499;-59
2023/04/28 03:19:36;;;;;;;4.70;4.13;;;6.80;99.90;;;;;;5086050;28;20588;-60
2023/04/28 03:22:03;;;;;;;5.07;3.50;;;6.80;99.90;;;;;;5087472;28;20507;-59
2023/04/28 03:24:31;;;;;;;6.70;3.60;;;6.80;99.90;;;;;;5086991;28;20446;-58
2023/04/28 03:27:02;;;;;;;8.53;3.33;;;6.80;99.90;;;;;;5087809;28;20744;-59
2023/04/28 03:29:29;;;;;;;6.13;3.77;;;6.70;99.90;;;;;;5086970;28;20449;-59
2023/04/28 03:31:56;;;;;;;9.57;3.00;;;6.70;99.90;;;;;;5086938;28;20557;-59
2023/04/28 03:34:23;;;;;;;5.93;2.80;;;6.70;99.90;;;;;;5087341;28;20943;-55
2023/04/28 03:36:53;;;;;;;5.37;3.23;;;6.60;99.90;;;;;;5087116;28;20446;-58
2023/04/28 03:39:20;;;;;;;4.50;2.87;;;6.60;99.90;;;;;;5087018;28;20506;-59
2023/04/28 03:41:48;;;;;;;5.20;3.27;;;6.60;99.90;;;;;;5086943;28;20485;-59
2023/04/28 03:44:15;;;;;;;7.23;3.10;;;6.60;99.90;;;;;;5090964;28;20466;-58
2023/04/28 03:46:42;;;;;;;7.20;3.17;;;6.60;99.90;;;;;;5090082;28;20481;-58
2023/04/28 03:49:09;;;;;;;9.70;3.00;;;6.60;99.90;;;;;;5090360;28;20442;-60
2023/04/28 03:51:36;;;;;;;4.00;2.37;;;6.60;99.90;;;;;;5090236;28;20466;-59
2023/04/28 03:54:02;;;;;;;8.93;4.73;;;6.60;99.90;;;;;;5090084;28;20533;-58
2023/04/28 03:56:30;;;;;;;8.00;3.27;;;6.60;99.90;;;;;;5089762;28;20781;-57
2023/04/28 03:58:58;;;;;;;3.50;2.87;;;6.60;99.90;;;;;;5090291;28;20478;-57
2023/04/28 04:01:25;;;;;;;9.30;3.60;;;6.70;99.90;;;;;;5090460;28;20518;-58
2023/04/28 04:03:52;;;;;;;9.50;3.40;;;6.70;99.90;;;;;;5090303;28;20438;-61
2023/04/28 04:06:19;;;;;;;2.50;2.27;;;6.70;99.90;;;;;;5089957;28;20453;-61
2023/04/28 04:08:58;;;;;;;5.90;3.20;;;6.80;99.90;;;;;;5089040;28;20493;-58
2023/04/28 04:11:25;;;;;;;13.13;3.37;;;6.70;99.90;;;;;;5090368;28;20477;-58
2023/04/28 04:13:52;;;;;;;7.00;3.57;;;6.60;99.90;;;;;;5090398;28;20942;-60
2023/04/28 04:16:22;;;;;;;5.50;3.43;;;6.60;99.90;;;;;;5090451;28;20426;-60
2023/04/28 04:18:49;;;;;;;7.63;3.33;;;6.60;99.90;;;;;;5090052;28;20566;-58
2023/04/28 04:21:16;;;;;;;7.03;3.37;;;6.60;99.90;;;;;;5090393;28;20537;-58
2023/04/28 04:23:42;;;;;;;7.60;3.20;;;6.60;99.90;;;;;;5089291;28;20450;-57
2023/04/28 04:26:09;;;;;;;5.10;3.30;;;6.60;99.90;;;;;;5089985;28;20474;-60
2023/04/28 04:28:36;;;;;;;6.00;2.77;;;6.60;99.90;;;;;;5089890;28;20478;-60
2023/04/28 04:31:03;;;;;;;3.87;3.20;;;6.60;99.90;;;;;;5089971;28;20439;-56
2023/04/28 04:33:33;;;;;;;3.37;3.03;;;6.60;99.90;;;;;;5089470;28;20493;-57
2023/04/28 04:36:00;;;;;;;4.00;2.40;;;6.60;99.90;;;;;;5089936;28;20460;-59
2023/04/28 04:38:27;;;;;;;4.73;3.67;;;6.60;99.90;;;;;;5089377;28;20502;-60
2023/04/28 04:40:54;;;;;;;4.33;2.17;;;6.70;99.90;;;;;;5089571;28;20442;-60
2023/04/28 04:43:21;;;;;;;5.07;2.47;;;6.70;99.90;;;;;;5089072;28;20442;-55
2023/04/28 04:45:47;;;;;;;8.03;3.10;;;6.70;99.90;;;;;;5089274;28;20568;-57
2023/04/28 04:48:14;;;;;;;4.90;2.90;;;6.80;99.90;;;;;;5088059;28;20468;-55
2023/04/28 04:50:43;;;;;;;11.63;3.40;;;6.90;99.90;;;;;;5088420;28;20458;-55
2023/04/28 04:53:10;;;;;;;3.73;2.90;;;7.00;99.90;;;;;;5087049;28;20462;-54
2023/04/28 04:55:37;;;;;;;6.23;3.20;;;7.00;99.90;;;;;;5096387;28;20457;-55
2023/04/28 04:58:04;;;;;;;6.77;3.83;;;7.10;99.90;;;;;;5096690;28;20478;-54
2023/04/28 05:00:30;;;;;;;9.40;3.47;;;7.10;99.90;;;;;;5096933;28;20446;-53
2023/04/28 05:02:57;;;;;;;5.90;3.17;;;7.10;99.90;;;;;;5097033;28;20454;-56
2023/04/28 05:05:24;;;;;;;8.20;4.07;;;7.10;99.90;;;;;;5097129;28;20458;-52
2023/04/28 05:07:53;;;;;;;5.77;3.90;;;7.20;99.90;;;;;;5096835;28;20474;-55
2023/04/28 05:10:20;;;;;;;7.70;2.67;;;7.20;99.90;;;;;;5096821;28;20459;-53
2023/04/28 05:12:47;;;;;;;5.67;4.00;;;7.30;99.90;;;;;;5096837;28;20449;-54
2023/04/28 05:15:14;;;;;;;5.17;3.20;;;7.30;99.90;;;;;;5097793;28;20964;-55
2023/04/28 05:17:41;;;;;;;6.87;3.10;;;7.30;99.90;;;;;;5097327;28;20486;-55
2023/04/28 05:20:09;;;;;;;7.43;3.40;;;7.40;99.90;;;;;;5096325;28;20481;-55
2023/04/28 05:22:35;;;;;;;8.07;4.10;;;7.40;99.90;;;;;;5095868;28;20486;-55
2023/04/28 05:25:04;;;;;;;5.63;3.77;;;7.50;99.90;;;;;;5096284;28;20446;-55
2023/04/28 05:27:31;;;;;;;5.53;3.10;;;7.60;99.90;;;;;;5096552;28;20548;-57
2023/04/28 05:29:58;;;;;;;11.50;4.10;;;7.60;99.90;;;;;;5095546;28;20522;-56
2023/04/28 05:32:25;;;;;;;4.90;2.97;;;7.70;99.90;;;;;;5095877;28;20438;-57
2023/04/28 05:34:52;;;;;;;8.70;3.80;;;7.80;99.90;;;;;;5095749;28;20478;-55
2023/04/28 05:37:19;;;;;;;8.60;3.87;;;7.90;99.90;;;;;;5095821;28;20438;-56
2023/04/28 05:39:46;;;;;;;5.30;3.50;;;8.00;99.90;;;;;;5092596;28;20959;-56
2023/04/28 05:42:14;;;;;;;5.33;3.53;;;8.10;99.90;;;;;;5086526;28;20521;-55
2023/04/28 05:44:41;;;;;;;4.83;2.80;;;8.20;99.90;;;;;;5086682;28;20462;-58
2023/04/28 05:47:08;;;;;;;11.23;4.07;;;8.20;99.90;;;;;;5086085;28;20487;-59
2023/04/28 05:49:35;;;;;;;11.43;4.30;;;8.40;99.90;;;;;;5086000;28;20526;-59
2023/04/28 05:52:02;;;;;;;6.27;3.90;;;8.40;99.90;;;;;;5085130;28;20467;-59
2023/04/28 05:54:29;;;;;;;9.17;5.13;;;8.50;99.90;;;;;;5083801;28;20540;-59
2023/04/28 05:56:56;;;;;;;8.73;3.80;;;8.60;99.90;;;;;;5083845;28;21011;-60
2023/04/28 05:59:25;;;;;;;16.40;4.57;;;8.70;99.90;;;;;;5084315;28;20489;-59
2023/04/28 06:01:51;;;;;;;5.90;3.10;;;8.80;99.90;;;;;;5084036;28;20849;-59
2023/04/28 06:04:18;;;;;;;4.80;2.83;;;8.90;99.90;;;;;;5084659;28;20486;-58
2023/04/28 06:06:45;;;;;;;6.50;3.60;;;8.90;99.90;;;;;;5093765;28;20438;-58
2023/04/28 06:09:12;;;;;;;5.80;3.23;;;9.10;99.90;;;;;;5092022;28;20501;-59
2023/04/28 06:11:39;;;;;;;5.07;3.20;;;9.60;99.90;;;;;;5091268;28;20473;-59
2023/04/28 06:14:06;;;;;;;7.87;3.47;;;9.70;99.90;;;;;;5090904;28;20541;-59
2023/04/28 06:16:34;;;;;;;4.03;3.00;;;9.80;99.90;;;;;;5089872;28;20475;-56
2023/04/28 06:19:02;;;;;;;5.93;3.63;;;9.90;99.90;;;;;;5090190;28;20488;-59
2023/04/28 06:21:29;;;;;;;5.43;4.00;;;10.10;99.90;;;;;;5088677;28;20498;-59
2023/04/28 06:23:55;;;;;;;7.77;3.80;;;10.40;99.90;;;;;;5089798;28;20473;-59
2023/04/28 06:26:23;;;;;;;11.30;4.30;;;10.60;99.90;;;;;;5088760;28;20501;-59
2023/04/28 06:28:50;;;;;;;5.33;3.70;;;10.80;99.90;;;;;;5088960;28;20482;-57
2023/04/28 06:31:17;;;;;;;14.83;3.93;;;11.00;99.90;;;;;;5088096;28;20450;-57
2023/04/28 06:33:45;;;;;;;5.50;2.87;;;11.20;99.90;;;;;;5087029;28;20553;-59
2023/04/28 06:36:15;;;;;;;6.63;3.87;;;11.30;99.90;;;;;;5084631;28;20525;-63
2023/04/28 06:38:42;;;;;;;7.37;3.60;;;11.40;99.90;;;;;;5080803;28;20877;-56
2023/04/28 06:41:09;;;;;;;4.57;3.33;;;11.50;99.90;;;;;;5079866;28;20426;-57
2023/04/28 06:43:36;;;;;;;6.33;4.17;;;11.70;99.90;;;;;;5079487;28;20438;-58
2023/04/28 06:46:05;;;;;;;12.70;3.83;;;11.80;99.90;;;;;;5079265;28;20512;-59
2023/04/28 06:48:31;;;;;;;7.10;3.53;;;12.00;99.90;;;;;;5079035;28;20446;-59
2023/04/28 06:51:00;;;;;;;13.63;6.83;;;12.10;99.90;;;;;;5079819;28;20557;-56
2023/04/28 06:53:27;;;;;;;5.70;3.63;;;12.30;99.90;;;;;;5088006;28;20423;-59
2023/04/28 06:55:53;;;;;;;5.43;3.43;;;12.40;99.90;;;;;;5080468;28;20469;-60
2023/04/28 06:58:21;;;;;;;5.10;4.10;;;12.50;99.50;;;;;;5079169;28;20545;-58
2023/04/28 07:00:47;;;;;;;9.70;3.53;;;12.60;98.10;;;;;;5079257;28;20545;-57
2023/04/28 07:03:14;;;;;;;8.80;2.73;;;12.60;97.60;;;;;;5079050;28;20466;-58
2023/04/28 07:05:41;;;;;;;4.40;3.60;;;12.60;97.40;;;;;;5077258;28;20498;-59
2023/04/28 07:08:10;;;;;;;4.40;3.47;;;12.70;97.70;;;;;;5076257;28;20478;-59
2023/04/28 07:10:37;;;;;;;9.33;3.23;;;12.70;97.10;;;;;;5076495;28;20462;-59
2023/04/28 07:13:04;;;;;;;4.10;3.67;;;12.70;96.20;;;;;;5076638;28;20862;-58
2023/04/28 07:15:31;;;;;;;6.10;2.83;;;12.70;96.60;;;;;;5076105;28;20520;-60
2023/04/28 07:17:58;;;;;;;3.40;3.10;;;12.70;96.50;;;;;;5078833;28;20448;-59
2023/04/28 07:20:25;;;;;;;5.00;2.93;;;12.70;95.30;;;;;;5080088;28;20516;-60
2023/04/28 07:22:51;;;;;;;7.97;2.60;;;12.70;95.80;;;;;;5080913;28;20911;-58
2023/04/28 07:25:20;;;;;;;3.37;2.23;;;12.70;96.00;;;;;;5080875;28;20438;-57
2023/04/28 07:27:47;;;;;;;10.13;3.10;;;12.70;96.00;;;;;;5080341;28;20549;-60
2023/04/28 07:30:14;;;;;;;3.43;2.40;;;12.80;96.30;;;;;;5080368;28;20503;-60
2023/04/28 07:32:42;;;;;;;9.63;2.70;;;12.90;95.70;;;;;;5080160;28;21018;-59
2023/04/28 07:35:09;;;;;;;8.23;3.40;;;13.00;94.90;;;;;;5080015;28;20537;-60
2023/04/28 07:37:37;;;;;;;4.70;2.87;;;13.10;93.00;;;;;;5080097;28;20503;-60
2023/04/28 07:40:05;;;;;;;5.03;3.43;;;13.20;93.10;;;;;;5083025;28;20473;-59
2023/04/28 07:42:33;;;;;;;3.80;2.80;;;13.40;91.80;;;;;;5085397;28;20873;-58
2023/04/28 07:45:00;;;;;;;6.87;2.60;;;13.70;91.10;;;;;;5085048;28;20799;-60
2023/04/28 07:47:28;;;;;;;7.43;3.10;;;13.90;90.90;;;;;;5085011;28;20613;-59
2023/04/28 07:55:06;;;;;;;10.80;3.90;;;17.20;78.10;;;;;;5280641;23;20526;-65
2023/04/28 07:57:35;;;;;;;9.87;3.20;;;18.70;67.80;;;;;;5012739;28;20466;-65
2023/04/28 08:00:04;;;;;;;4.00;2.53;;;20.00;61.70;;;;;;4974323;28;20526;-67
2023/04/28 08:02:33;;;;;;;4.53;3.00;;;20.70;57.90;;;;;;4956074;28;20472;-66
2023/04/28 08:05:00;;;;;;;9.23;3.60;;;21.40;55.60;;;;;;4956678;28;20470;-67
2023/04/28 08:07:28;;;;;;;5.70;3.53;;;22.00;53.90;;;;;;4956372;28;20506;-66
2023/04/28 08:09:57;;;;;;;4.17;3.60;;;22.80;51.60;;;;;;4940501;29;20448;-68
2023/04/28 08:12:24;;;;;;;6.63;3.30;;;23.60;49.60;;;;;;4956348;28;20530;-66
2023/04/28 08:17:20;;;;;;;8.70;3.40;;;24.70;45.30;;;;;;5020372;28;20453;-60
2023/04/28 08:19:47;;;;;;;4.50;3.60;;;25.00;44.60;;;;;;5018192;28;20585;-61
2023/04/28 08:22:14;;;;;;;8.60;4.60;;;25.10;44.00;;;;;;5017701;28;20824;-61
2023/04/28 08:24:41;;;;;;;3.60;3.10;;;25.40;43.00;;;;;;5017308;28;20531;-61
2023/04/28 08:27:08;;;;;;;6.27;3.87;;;25.80;42.60;;;;;;5017426;28;20433;-60
2023/04/28 08:29:35;;;;;;;3.70;3.40;;;26.30;41.40;;;;;;5017211;28;20499;-60
2023/04/28 08:32:02;;;;;;;3.47;3.17;;;26.40;41.00;;;;;;5018984;28;20461;-61
2023/04/28 08:34:30;;;;;;;8.43;4.10;;;26.60;40.00;;;;;;5022791;28;20480;-60
2023/04/28 08:36:57;;;;;;;4.30;3.33;;;26.50;39.70;;;;;;5023194;28;20960;-63
2023/04/28 08:39:25;;;;;;;4.60;3.87;;;26.50;42.50;;;;;;5022642;28;20559;-61
2023/04/28 08:41:52;;;;;;;3.67;3.30;;;26.40;39.60;;;;;;5021381;28;20936;-63
2023/04/28 08:44:20;;;;;;;3.67;2.83;;;26.10;46.20;;;;;;5021374;28;20480;-61
2023/04/28 08:46:49;;;;;;;5.70;3.67;;;26.10;40.10;;;;;;5020742;28;20511;-61
2023/04/28 08:49:18;;;;;;;5.47;3.40;;;26.00;39.80;;;;;;5021054;28;20445;-63
2023/04/28 08:51:50;;;;;;;8.23;3.60;;;25.80;39.70;;;;;;5020998;28;20496;-61
2023/04/28 08:54:18;;;;;;;4.77;3.60;;;25.50;39.80;;;;;;5021072;28;20491;-63
2023/04/28 08:56:47;;;;;;;5.80;4.00;;;25.40;39.70;;;;;;5021717;28;20977;-60
2023/04/28 08:59:17;;;;;;;9.90;3.20;;;25.00;39.80;;;;;;5039390;28;20945;-63
2023/04/28 09:01:43;;;;;;;5.13;3.27;;;24.90;40.60;;;;;;5042871;28;20543;-60
2023/04/28 09:04:10;;;;;;;3.67;3.30;;;24.70;40.30;;;;;;5041339;28;20527;-59
2023/04/28 09:06:38;;;;;;;4.33;3.93;;;24.70;40.60;;;;;;5045633;28;20506;-59
2023/04/28 09:09:24;;;;;;;8.20;3.60;;;24.70;40.20;;;;;;5045306;28;20478;-60
2023/04/28 09:11:52;;;;;;;6.37;4.70;;;24.60;40.60;;;;;;5043239;28;20476;-61
2023/04/28 09:14:19;;;;;;;9.13;3.43;;;24.50;40.70;;;;;;5043793;28;20456;-60
2023/04/28 09:16:46;;;;;;;7.47;3.50;;;24.30;40.30;;;;;;5024996;28;20492;-62
2023/04/28 09:19:16;;;;;;;5.60;4.60;;;24.00;40.50;;;;;;5018420;28;20449;-60
2023/04/28 09:21:48;;;;;;;4.63;3.60;;;23.70;41.10;;;;;;5018521;28;20473;-59
2023/04/28 09:24:28;;;;;;;7.80;3.80;;;23.40;41.20;;;;;;5016758;28;20890;-62
2023/04/28 09:26:55;;;;;;;4.83;3.90;;;23.30;41.50;;;;;;5016314;28;20551;-58
2023/04/28 09:29:23;;;;;;;7.37;4.10;;;23.10;41.60;;;;;;5016246;28;20480;-59
2023/04/28 09:31:50;;;;;;;6.63;3.63;;;23.00;42.50;;;;;;5016081;28;21010;-61
2023/04/28 09:34:17;;;;;;;4.27;3.40;;;22.90;42.40;;;;;;5017223;28;20479;-61
2023/04/28 09:36:44;;;;;;;5.77;3.37;;;22.80;42.60;;;;;;5019816;28;20477;-59
2023/04/28 09:39:11;;;;;;;6.53;3.90;;;22.90;42.60;;;;;;5019702;28;20485;-61
2023/04/28 09:41:40;;;;;;;12.17;4.20;;;23.20;42.90;;;;;;5019878;28;20473;-60
2023/04/28 09:44:11;;;;;;;6.10;4.40;;;23.50;42.20;;;;;;5020780;28;20465;-62
2023/04/28 09:46:39;;;;;;;5.90;3.97;;;23.90;41.90;;;;;;5019234;28;20480;-58
2023/04/28 09:49:06;;;;;;;7.93;4.73;;;24.10;41.30;;;;;;5019608;28;20469;-61
2023/04/28 09:51:33;;;;;;;10.30;3.50;;;24.20;41.60;;;;;;5019578;28;20445;-60
2023/04/28 09:54:01;;;;;;;5.80;4.27;;;24.30;40.90;;;;;;5022296;28;20748;-59
2023/04/28 09:56:29;;;;;;;4.80;3.90;;;24.50;40.90;;;;;;5022367;28;20440;-61
2023/04/28 09:58:59;;;;;;;4.80;4.30;;;24.60;40.50;;;;;;5022123;28;20477;-61
2023/04/28 10:01:27;;;;;;;8.07;3.87;;;24.70;40.60;;;;;;5021179;28;20481;-61
2023/04/28 10:03:54;;;;;;;7.80;5.07;;;24.50;40.60;;;;;;5020899;28;20487;-61
2023/04/28 10:06:22;;;;;;;12.10;4.40;;;24.30;40.40;;;;;;5021146;28;20445;-61
2023/04/28 10:08:52;;;;;;;8.43;4.40;;;24.00;40.50;;;;;;5021782;28;20449;-60
2023/04/28 10:11:21;;;;;;;3.83;3.43;;;23.60;40.80;;;;;;5021770;28;20461;-61
2023/04/28 10:13:49;;;;;;;10.03;4.20;;;23.50;41.70;;;;;;5021528;28;20862;-59
2023/04/28 10:16:19;;;;;;;9.13;3.90;;;23.30;41.40;;;;;;5021648;28;20452;-62
2023/04/28 10:18:46;;;;;;;5.37;3.57;;;23.30;41.60;;;;;;5022244;28;20509;-61
2023/04/28 10:21:18;;;;;;;6.90;3.70;;;23.40;42.40;;;;;;5022812;28;20488;-62
2023/04/28 10:24:08;;;;;;;6.73;4.57;;;23.40;41.40;;;;;;5023500;28;20453;-63
2023/04/28 10:27:07;;;;;;;6.20;4.23;;;23.10;41.80;;;;;;5023564;28;20492;-61
2023/04/28 10:29:34;;;;;;;6.13;3.87;;;23.00;42.30;;;;;;5023636;28;20425;-59
2023/04/28 10:32:21;;;;;;;5.20;4.53;;;22.90;41.90;;;;;;5023978;28;20473;-61
2023/04/28 10:34:48;;;;;;;5.47;3.93;;;23.10;42.20;;;;;;5024386;28;20438;-62
2023/04/28 10:37:17;;;;;;;7.00;4.50;;;23.00;42.60;;;;;;5023534;28;20469;-60
2023/04/28 10:40:28;;;;;;;7.77;4.10;;;23.00;43.20;;;;;;5022474;28;20434;-61
2023/04/28 10:42:56;;;;;;;5.90;3.57;;;22.90;42.90;;;;;;4949399;29;20550;-61
2023/04/28 10:46:00;;;;;;;9.50;4.60;;;23.10;42.60;;;;;;5008459;28;20453;-61
2023/04/28 10:49:04;;;;;;;9.20;3.77;;;23.10;42.60;;;;;;5025549;28;20468;-59
2023/04/28 10:51:33;;;;;;;9.40;5.00;;;23.00;43.00;;;;;;5029563;28;20432;-59
2023/04/28 10:54:19;;;;;;;8.67;4.07;;;22.60;43.20;;;;;;5028499;28;20802;-58
2023/04/28 10:57:23;;;;;;;9.73;5.83;;;22.30;43.80;;;;;;5030073;28;20468;-61
2023/04/28 10:59:51;;;;;;;5.97;4.40;;;22.20;44.20;;;;;;5030384;28;20499;-62
2023/04/28 11:02:41;;;;;;;5.53;4.03;;;22.00;44.60;;;;;;5030238;28;20445;-61
2023/04/28 11:05:15;;;;;;;8.23;4.10;;;21.80;44.50;;;;;;5030103;28;20524;-61
2023/04/28 11:08:33;;;;;;;6.30;4.63;;;21.60;45.10;;;;;;5030211;28;20448;-61
2023/04/28 11:11:13;;;;;;;7.10;4.20;;;21.40;45.70;;;;;;5029980;28;20461;-60
2023/04/28 11:13:40;;;;;;;6.47;5.00;;;21.20;45.30;;;;;;5030792;28;20512;-58
2023/04/28 11:16:07;;;;;;;6.83;4.87;;;21.00;45.10;;;;;;5030885;28;20556;-61
2023/04/28 11:18:53;;;;;;;6.90;5.07;;;21.00;45.00;;;;;;5031106;28;20440;-60
2023/04/28 11:21:21;;;;;;;9.73;4.50;;;20.90;45.80;;;;;;5030620;28;20479;-62
2023/04/28 11:23:50;;;;;;;9.70;5.10;;;20.70;45.60;;;;;;5031358;28;20452;-61
2023/04/28 11:26:19;;;;;;;4.77;4.13;;;20.60;45.60;;;;;;5030798;28;20445;-60
2023/04/28 11:28:50;;;;;;;7.83;5.53;;;20.50;45.60;;;;;;5031381;28;20484;-60
2023/04/28 11:31:20;;;;;;;6.33;4.73;;;20.40;46.80;;;;;;5031049;28;20437;-61
2023/04/28 11:33:50;;;;;;;9.00;5.20;;;20.20;46.80;;;;;;5030905;28;20508;-62
2023/04/28 11:36:34;;;;;;;6.60;4.47;;;20.10;46.60;;;;;;5030917;28;20441;-61
2023/04/28 11:39:06;;;;;;;5.57;4.60;;;19.80;46.90;;;;;;5031720;28;20535;-60
2023/04/28 11:41:33;;;;;;;6.23;4.50;;;19.60;48.00;;;;;;5031334;28;20481;-61
2023/04/28 11:44:00;;;;;;;6.97;4.70;;;19.50;47.80;;;;;;5030769;28;20464;-60
2023/04/28 11:46:27;;;;;;;9.03;4.80;;;19.40;48.00;;;;;;5031723;28;20480;-62
2023/04/28 11:49:03;;;;;;;9.50;4.80;;;19.30;48.80;;;;;;5036386;28;20459;-62
2023/04/28 11:51:32;;;;;;;6.83;4.63;;;19.20;48.30;;;;;;5036454;28;20772;-58
2023/04/28 11:53:59;;;;;;;7.70;6.00;;;19.10;48.60;;;;;;5036790;28;20445;-50
2023/04/28 11:56:28;;;;;;;8.93;5.73;;;19.10;48.90;;;;;;5036992;28;20456;-57
2023/04/28 11:59:06;;;;;;;11.93;5.17;;;19.00;49.00;;;;;;5037008;28;20823;-61
2023/04/28 12:01:44;;;;;;;6.60;4.80;;;18.90;49.30;;;;;;5036072;28;20475;-58
2023/04/28 12:04:12;;;;;;;8.77;5.13;;;18.80;49.60;;;;;;5039291;28;20429;-57
2023/04/28 12:06:41;;;;;;;6.53;4.90;;;18.80;49.60;;;;;;5040111;28;20495;-59
2023/04/28 12:09:23;;;;;;;7.10;4.97;;;18.90;49.80;;;;;;5040018;28;20504;-57
2023/04/28 12:11:57;;;;;;;10.30;5.13;;;19.10;49.60;;;;;;5040016;28;20409;-60
2023/04/28 12:14:24;;;;;;;9.30;5.27;;;19.40;49.60;;;;;;5039881;28;20441;-57
2023/04/28 12:16:53;;;;;;;6.70;4.53;;;19.50;49.30;;;;;;5039636;28;20445;-59
2023/04/28 12:19:23;;;;;;;7.70;5.80;;;19.70;49.20;;;;;;5039941;28;20471;-60
2023/04/28 12:22:02;;;;;;;8.17;5.17;;;19.80;49.50;;;;;;5039463;28;20559;-62
2023/04/28 12:24:29;;;;;;;6.57;5.10;;;20.00;49.30;;;;;;5039438;28;20468;-57
2023/04/28 12:27:15;;;;;;;9.10;4.17;;;20.00;49.00;;;;;;5039155;28;20472;-58
2023/04/28 12:29:44;;;;;;;7.37;4.70;;;20.20;49.10;;;;;;5039436;28;20483;-60
2023/04/28 12:32:12;;;;;;;5.97;4.80;;;20.30;48.70;;;;;;5039551;28;20441;-59
2023/04/28 12:34:42;;;;;;;4.93;4.43;;;20.30;48.70;;;;;;5039589;28;20449;-60
2023/04/28 12:37:09;;;;;;;7.57;5.50;;;20.20;48.50;;;;;;5039191;28;20449;-56
2023/04/28 12:39:37;;;;;;;7.87;5.27;;;20.00;48.80;;;;;;5039343;28;20445;-55
2023/04/28 12:42:11;;;;;;;9.90;5.50;;;20.00;49.90;;;;;;5039063;28;20499;-61
2023/04/28 12:44:39;;;;;;;14.10;5.17;;;19.90;49.30;;;;;;5038732;28;20444;-63
2023/04/28 12:47:09;;;;;;;7.47;4.60;;;19.80;49.20;;;;;;5039264;28;20437;-58
2023/04/28 12:49:37;;;;;;;6.67;5.00;;;19.80;49.40;;;;;;5039117;28;20452;-60
2023/04/28 12:52:05;;;;;;;8.33;6.10;;;19.80;50.00;;;;;;5039150;28;20469;-59
2023/04/28 12:54:33;;;;;;;9.40;5.47;;;19.70;50.60;;;;;;5039495;28;20445;-59
2023/04/28 12:57:00;;;;;;;15.93;4.90;;;19.60;51.00;;;;;;5038191;28;20468;-60
2023/04/28 12:59:30;;;;;;;7.60;5.10;;;19.50;50.10;;;;;;5038296;28;20460;-61
2023/04/28 13:01:59;;;;;;;6.83;4.57;;;19.40;50.60;;;;;;5038279;28;20485;-61
2023/04/28 13:04:27;;;;;;;9.63;4.23;;;19.20;50.40;;;;;;5038473;28;20430;-61
2023/04/28 13:06:53;;;;;;;8.93;5.27;;;19.10;50.80;;;;;;5038211;28;20445;-62
2023/04/28 13:09:20;;;;;;;12.93;4.70;;;19.00;51.10;;;;;;5038492;28;20425;-62